sensor_id;sensor_type;location;lat;lon;timestamp;P1;durP1;ratioP1;P2;durP2;ratioP2
6939;SDS011;3509;48.510;9.076;2022-08-19T00:00:24;43.28;;;36.28;;
6939;SDS011;3509;48.510;9.076;2022-08-19T00:02:50;42.72;;;37.30;;
6939;SDS011;3509;48.510;9.076;2022-08-19T00:05:16;40.88;;;36.15;;
6939;SDS011;3509;48.510;9.076;2022-08-19T00:07:44;41.63;;;36.85;;
6939;SDS011;3509;48.510;9.076;2022-08-19T00:10:11;46.88;;;39.15;;
6939;SDS011;3509;48.510;9.076;2022-08-19T00:12:38;45.78;;;37.17;;
6939;SDS011;3509;48.510;9.076;2022-08-19T00:15:05;45.10;;;37.92;;
6939;SDS011;3509;48.510;9.076;2022-08-19T00:17:35;45.83;;;39.08;;
6939;SDS011;3509;48.510;9.076;2022-08-19T00:20:01;49.35;;;39.70;;
6939;SDS011;3509;48.510;9.076;2022-08-19T00:22:27;47.15;;;39.47;;
6939;SDS011;3509;48.510;9.076;2022-08-19T00:24:53;49.25;;;38.88;;
6939;SDS011;3509;48.510;9.076;2022-08-19T00:27:19;50.10;;;37.92;;
6939;SDS011;3509;48.510;9.076;2022-08-19T00:29:45;47.15;;;38.35;;
6939;SDS011;3509;48.510;9.076;2022-08-19T00:32:10;45.42;;;36.40;;
6939;SDS011;3509;48.510;9.076;2022-08-19T00:34:37;47.20;;;39.50;;
6939;SDS011;3509;48.510;9.076;2022-08-19T00:37:02;52.42;;;39.13;;
6939;SDS011;3509;48.510;9.076;2022-08-19T00:39:28;50.67;;;38.53;;
6939;SDS011;3509;48.510;9.076;2022-08-19T00:41:54;49.92;;;39.05;;
6939;SDS011;3509;48.510;9.076;2022-08-19T00:44:23;47.90;;;38.65;;
6939;SDS011;3509;48.510;9.076;2022-08-19T00:46:53;52.35;;;39.58;;
6939;SDS011;3509;48.510;9.076;2022-08-19T00:52:05;59.47;;;40.55;;
6939;SDS011;3509;48.510;9.076;2022-08-19T00:54:34;55.38;;;40.25;;
6939;SDS011;3509;48.510;9.076;2022-08-19T00:57:02;53.65;;;40.03;;
6939;SDS011;3509;48.510;9.076;2022-08-19T00:59:31;54.53;;;42.15;;
6939;SDS011;3509;48.510;9.076;2022-08-19T01:01:57;57.78;;;39.65;;
6939;SDS011;3509;48.510;9.076;2022-08-19T01:04:23;60.83;;;42.35;;
6939;SDS011;3509;48.510;9.076;2022-08-19T01:06:49;60.95;;;42.45;;
6939;SDS011;3509;48.510;9.076;2022-08-19T01:09:14;56.40;;;40.80;;
6939;SDS011;3509;48.510;9.076;2022-08-19T01:11:41;58.08;;;41.78;;
6939;SDS011;3509;48.510;9.076;2022-08-19T01:14:08;60.22;;;40.35;;
6939;SDS011;3509;48.510;9.076;2022-08-19T01:16:35;71.40;;;43.17;;
6939;SDS011;3509;48.510;9.076;2022-08-19T01:19:02;63.38;;;41.83;;
6939;SDS011;3509;48.510;9.076;2022-08-19T01:24:11;54.65;;;40.38;;
6939;SDS011;3509;48.510;9.076;2022-08-19T01:26:41;58.92;;;42.72;;
6939;SDS011;3509;48.510;9.076;2022-08-19T01:29:08;70.72;;;42.90;;
6939;SDS011;3509;48.510;9.076;2022-08-19T01:31:34;78.38;;;44.28;;
6939;SDS011;3509;48.510;9.076;2022-08-19T01:34:01;69.97;;;43.22;;
6939;SDS011;3509;48.510;9.076;2022-08-19T01:36:35;72.70;;;44.17;;
6939;SDS011;3509;48.510;9.076;2022-08-19T01:39:08;64.22;;;45.00;;
6939;SDS011;3509;48.510;9.076;2022-08-19T01:41:36;63.75;;;44.20;;
6939;SDS011;3509;48.510;9.076;2022-08-19T01:44:03;63.22;;;44.67;;
6939;SDS011;3509;48.510;9.076;2022-08-19T01:46:30;76.20;;;44.85;;
6939;SDS011;3509;48.510;9.076;2022-08-19T01:48:57;72.25;;;44.58;;
6939;SDS011;3509;48.510;9.076;2022-08-19T01:51:23;66.22;;;43.05;;
6939;SDS011;3509;48.510;9.076;2022-08-19T01:53:49;70.30;;;43.72;;
6939;SDS011;3509;48.510;9.076;2022-08-19T01:56:16;63.03;;;42.45;;
6939;SDS011;3509;48.510;9.076;2022-08-19T01:58:51;67.38;;;44.08;;
6939;SDS011;3509;48.510;9.076;2022-08-19T02:01:20;85.93;;;44.65;;
6939;SDS011;3509;48.510;9.076;2022-08-19T02:03:46;98.20;;;45.88;;
6939;SDS011;3509;48.510;9.076;2022-08-19T02:06:12;82.72;;;46.28;;
6939;SDS011;3509;48.510;9.076;2022-08-19T02:08:39;69.03;;;44.90;;
6939;SDS011;3509;48.510;9.076;2022-08-19T02:11:05;73.50;;;44.88;;
6939;SDS011;3509;48.510;9.076;2022-08-19T02:13:32;75.72;;;45.75;;
6939;SDS011;3509;48.510;9.076;2022-08-19T02:15:59;80.85;;;44.92;;
6939;SDS011;3509;48.510;9.076;2022-08-19T02:18:25;82.60;;;44.70;;
6939;SDS011;3509;48.510;9.076;2022-08-19T02:20:51;80.82;;;44.25;;
6939;SDS011;3509;48.510;9.076;2022-08-19T02:23:17;70.20;;;43.58;;
6939;SDS011;3509;48.510;9.076;2022-08-19T02:25:43;70.75;;;45.15;;
6939;SDS011;3509;48.510;9.076;2022-08-19T02:28:10;74.93;;;43.45;;
6939;SDS011;3509;48.510;9.076;2022-08-19T02:30:37;70.63;;;44.65;;
6939;SDS011;3509;48.510;9.076;2022-08-19T02:33:03;73.55;;;44.03;;
6939;SDS011;3509;48.510;9.076;2022-08-19T02:35:30;96.32;;;46.20;;
6939;SDS011;3509;48.510;9.076;2022-08-19T02:37:56;95.55;;;45.88;;
6939;SDS011;3509;48.510;9.076;2022-08-19T02:40:58;88.55;;;45.03;;
6939;SDS011;3509;48.510;9.076;2022-08-19T02:43:27;98.22;;;48.00;;
6939;SDS011;3509;48.510;9.076;2022-08-19T02:45:55;107.90;;;48.35;;
6939;SDS011;3509;48.510;9.076;2022-08-19T02:48:21;99.55;;;47.58;;
6939;SDS011;3509;48.510;9.076;2022-08-19T02:50:49;95.35;;;47.35;;
6939;SDS011;3509;48.510;9.076;2022-08-19T02:53:23;81.38;;;46.10;;
6939;SDS011;3509;48.510;9.076;2022-08-19T02:55:51;87.60;;;46.65;;
6939;SDS011;3509;48.510;9.076;2022-08-19T02:58:17;91.05;;;47.65;;
6939;SDS011;3509;48.510;9.076;2022-08-19T03:00:44;89.07;;;47.42;;
6939;SDS011;3509;48.510;9.076;2022-08-19T03:03:14;90.25;;;45.83;;
6939;SDS011;3509;48.510;9.076;2022-08-19T03:05:40;86.47;;;47.03;;
6939;SDS011;3509;48.510;9.076;2022-08-19T03:08:07;89.80;;;47.85;;
6939;SDS011;3509;48.510;9.076;2022-08-19T03:10:39;85.30;;;46.05;;
6939;SDS011;3509;48.510;9.076;2022-08-19T03:13:10;81.72;;;45.30;;
6939;SDS011;3509;48.510;9.076;2022-08-19T03:15:41;93.85;;;47.58;;
6939;SDS011;3509;48.510;9.076;2022-08-19T03:18:11;81.85;;;46.50;;
6939;SDS011;3509;48.510;9.076;2022-08-19T03:20:43;77.55;;;45.63;;
6939;SDS011;3509;48.510;9.076;2022-08-19T03:23:12;83.50;;;47.03;;
6939;SDS011;3509;48.510;9.076;2022-08-19T03:25:42;88.18;;;47.17;;
6939;SDS011;3509;48.510;9.076;2022-08-19T03:28:13;104.65;;;46.83;;
6939;SDS011;3509;48.510;9.076;2022-08-19T03:30:40;99.38;;;47.83;;
6939;SDS011;3509;48.510;9.076;2022-08-19T03:33:08;115.25;;;50.05;;
6939;SDS011;3509;48.510;9.076;2022-08-19T03:35:35;141.52;;;52.33;;
6939;SDS011;3509;48.510;9.076;2022-08-19T03:38:04;139.50;;;52.22;;
6939;SDS011;3509;48.510;9.076;2022-08-19T03:40:31;125.05;;;50.65;;
6939;SDS011;3509;48.510;9.076;2022-08-19T03:42:59;134.85;;;50.05;;
6939;SDS011;3509;48.510;9.076;2022-08-19T03:45:25;118.05;;;49.67;;
6939;SDS011;3509;48.510;9.076;2022-08-19T03:47:52;123.72;;;50.20;;
6939;SDS011;3509;48.510;9.076;2022-08-19T03:50:18;129.85;;;50.42;;
6939;SDS011;3509;48.510;9.076;2022-08-19T03:52:47;119.85;;;49.13;;
6939;SDS011;3509;48.510;9.076;2022-08-19T03:55:16;101.95;;;47.35;;
6939;SDS011;3509;48.510;9.076;2022-08-19T03:57:43;97.65;;;47.42;;
6939;SDS011;3509;48.510;9.076;2022-08-19T04:00:10;90.13;;;48.08;;
6939;SDS011;3509;48.510;9.076;2022-08-19T04:02:37;108.07;;;49.78;;
6939;SDS011;3509;48.510;9.076;2022-08-19T04:05:02;86.78;;;46.03;;
6939;SDS011;3509;48.510;9.076;2022-08-19T04:07:28;93.70;;;46.50;;
6939;SDS011;3509;48.510;9.076;2022-08-19T04:09:54;98.82;;;47.60;;
6939;SDS011;3509;48.510;9.076;2022-08-19T04:12:19;94.97;;;48.58;;
6939;SDS011;3509;48.510;9.076;2022-08-19T04:14:45;111.85;;;50.38;;
6939;SDS011;3509;48.510;9.076;2022-08-19T04:17:11;118.38;;;49.83;;
6939;SDS011;3509;48.510;9.076;2022-08-19T04:19:38;99.00;;;48.13;;
6939;SDS011;3509;48.510;9.076;2022-08-19T04:22:04;123.85;;;51.10;;
6939;SDS011;3509;48.510;9.076;2022-08-19T04:24:31;126.40;;;51.67;;
6939;SDS011;3509;48.510;9.076;2022-08-19T04:29:28;115.55;;;50.40;;
6939;SDS011;3509;48.510;9.076;2022-08-19T04:31:55;117.68;;;48.80;;
6939;SDS011;3509;48.510;9.076;2022-08-19T04:34:23;136.57;;;51.53;;
6939;SDS011;3509;48.510;9.076;2022-08-19T04:36:51;130.20;;;51.20;;
6939;SDS011;3509;48.510;9.076;2022-08-19T04:39:19;128.98;;;51.47;;
6939;SDS011;3509;48.510;9.076;2022-08-19T04:42:08;120.25;;;49.97;;
6939;SDS011;3509;48.510;9.076;2022-08-19T04:44:52;124.85;;;52.70;;
6939;SDS011;3509;48.510;9.076;2022-08-19T04:47:18;115.07;;;51.20;;
6939;SDS011;3509;48.510;9.076;2022-08-19T04:49:43;116.72;;;52.88;;
6939;SDS011;3509;48.510;9.076;2022-08-19T04:52:09;128.65;;;52.83;;
6939;SDS011;3509;48.510;9.076;2022-08-19T04:54:34;132.63;;;51.20;;
6939;SDS011;3509;48.510;9.076;2022-08-19T04:57:00;118.57;;;50.53;;
6939;SDS011;3509;48.510;9.076;2022-08-19T04:59:26;116.50;;;50.92;;
6939;SDS011;3509;48.510;9.076;2022-08-19T05:01:51;120.45;;;52.60;;
6939;SDS011;3509;48.510;9.076;2022-08-19T05:04:18;112.75;;;53.00;;
6939;SDS011;3509;48.510;9.076;2022-08-19T05:06:45;119.68;;;54.25;;
6939;SDS011;3509;48.510;9.076;2022-08-19T05:09:12;120.47;;;54.10;;
6939;SDS011;3509;48.510;9.076;2022-08-19T05:11:39;132.57;;;57.17;;
6939;SDS011;3509;48.510;9.076;2022-08-19T05:14:05;114.07;;;52.47;;
6939;SDS011;3509;48.510;9.076;2022-08-19T05:16:32;112.10;;;52.38;;
6939;SDS011;3509;48.510;9.076;2022-08-19T05:18:57;114.00;;;54.42;;
6939;SDS011;3509;48.510;9.076;2022-08-19T05:21:42;117.22;;;52.72;;
6939;SDS011;3509;48.510;9.076;2022-08-19T05:24:27;121.63;;;53.65;;
6939;SDS011;3509;48.510;9.076;2022-08-19T05:26:53;99.50;;;51.90;;
6939;SDS011;3509;48.510;9.076;2022-08-19T05:29:24;98.10;;;50.03;;
6939;SDS011;3509;48.510;9.076;2022-08-19T05:31:52;95.60;;;49.35;;
6939;SDS011;3509;48.510;9.076;2022-08-19T05:34:19;112.13;;;49.67;;
6939;SDS011;3509;48.510;9.076;2022-08-19T05:36:48;110.90;;;49.35;;
6939;SDS011;3509;48.510;9.076;2022-08-19T05:39:18;95.20;;;48.85;;
6939;SDS011;3509;48.510;9.076;2022-08-19T05:41:46;86.35;;;46.50;;
6939;SDS011;3509;48.510;9.076;2022-08-19T05:44:24;111.57;;;49.72;;
6939;SDS011;3509;48.510;9.076;2022-08-19T05:46:50;104.60;;;51.30;;
6939;SDS011;3509;48.510;9.076;2022-08-19T05:49:20;107.70;;;51.28;;
6939;SDS011;3509;48.510;9.076;2022-08-19T05:51:47;111.82;;;52.03;;
6939;SDS011;3509;48.510;9.076;2022-08-19T05:54:14;92.07;;;49.08;;
6939;SDS011;3509;48.510;9.076;2022-08-19T05:56:40;99.53;;;50.58;;
6939;SDS011;3509;48.510;9.076;2022-08-19T05:59:07;84.35;;;46.67;;
6939;SDS011;3509;48.510;9.076;2022-08-19T06:01:36;87.80;;;48.53;;
6939;SDS011;3509;48.510;9.076;2022-08-19T06:04:03;107.72;;;49.35;;
6939;SDS011;3509;48.510;9.076;2022-08-19T06:06:29;104.40;;;49.92;;
6939;SDS011;3509;48.510;9.076;2022-08-19T06:08:55;105.25;;;49.75;;
6939;SDS011;3509;48.510;9.076;2022-08-19T06:14:01;98.47;;;48.30;;
6939;SDS011;3509;48.510;9.076;2022-08-19T06:16:34;95.40;;;50.33;;
6939;SDS011;3509;48.510;9.076;2022-08-19T06:19:02;101.25;;;48.72;;
6939;SDS011;3509;48.510;9.076;2022-08-19T06:21:31;91.57;;;49.08;;
6939;SDS011;3509;48.510;9.076;2022-08-19T06:23:58;86.80;;;47.47;;
6939;SDS011;3509;48.510;9.076;2022-08-19T06:26:24;99.97;;;48.60;;
6939;SDS011;3509;48.510;9.076;2022-08-19T06:28:51;90.65;;;49.22;;
6939;SDS011;3509;48.510;9.076;2022-08-19T06:31:17;75.60;;;45.92;;
6939;SDS011;3509;48.510;9.076;2022-08-19T06:33:46;74.65;;;46.17;;
6939;SDS011;3509;48.510;9.076;2022-08-19T06:36:20;75.30;;;45.95;;
6939;SDS011;3509;48.510;9.076;2022-08-19T06:38:53;83.93;;;46.90;;
6939;SDS011;3509;48.510;9.076;2022-08-19T06:41:19;83.53;;;46.33;;
6939;SDS011;3509;48.510;9.076;2022-08-19T06:43:44;78.00;;;47.05;;
6939;SDS011;3509;48.510;9.076;2022-08-19T06:46:14;80.88;;;46.47;;
6939;SDS011;3509;48.510;9.076;2022-08-19T06:48:40;68.88;;;45.30;;
6939;SDS011;3509;48.510;9.076;2022-08-19T06:51:06;70.15;;;45.33;;
6939;SDS011;3509;48.510;9.076;2022-08-19T06:53:32;68.78;;;45.40;;
6939;SDS011;3509;48.510;9.076;2022-08-19T06:55:58;67.88;;;45.28;;
6939;SDS011;3509;48.510;9.076;2022-08-19T06:58:28;65.65;;;43.40;;
6939;SDS011;3509;48.510;9.076;2022-08-19T07:00:57;57.13;;;42.70;;
6939;SDS011;3509;48.510;9.076;2022-08-19T07:03:28;57.40;;;41.65;;
6939;SDS011;3509;48.510;9.076;2022-08-19T07:05:56;65.20;;;44.50;;
6939;SDS011;3509;48.510;9.076;2022-08-19T07:08:23;56.30;;;42.50;;
6939;SDS011;3509;48.510;9.076;2022-08-19T07:10:51;56.30;;;41.67;;
6939;SDS011;3509;48.510;9.076;2022-08-19T07:13:17;53.53;;;40.38;;
6939;SDS011;3509;48.510;9.076;2022-08-19T07:15:44;59.47;;;43.05;;
6939;SDS011;3509;48.510;9.076;2022-08-19T07:18:11;61.85;;;42.63;;
6939;SDS011;3509;48.510;9.076;2022-08-19T07:20:37;62.30;;;44.92;;
6939;SDS011;3509;48.510;9.076;2022-08-19T07:23:03;59.85;;;43.25;;
6939;SDS011;3509;48.510;9.076;2022-08-19T07:25:29;58.03;;;43.42;;
6939;SDS011;3509;48.510;9.076;2022-08-19T07:27:55;58.25;;;44.38;;
6939;SDS011;3509;48.510;9.076;2022-08-19T07:30:20;56.60;;;43.92;;
6939;SDS011;3509;48.510;9.076;2022-08-19T07:32:48;56.72;;;42.92;;
6939;SDS011;3509;48.510;9.076;2022-08-19T07:35:15;58.45;;;43.05;;
6939;SDS011;3509;48.510;9.076;2022-08-19T07:37:44;57.45;;;44.10;;
6939;SDS011;3509;48.510;9.076;2022-08-19T07:40:11;54.75;;;43.22;;
6939;SDS011;3509;48.510;9.076;2022-08-19T07:42:37;56.85;;;43.70;;
6939;SDS011;3509;48.510;9.076;2022-08-19T07:45:03;57.80;;;42.65;;
6939;SDS011;3509;48.510;9.076;2022-08-19T07:47:30;63.60;;;44.58;;
6939;SDS011;3509;48.510;9.076;2022-08-19T07:49:56;61.03;;;41.83;;
6939;SDS011;3509;48.510;9.076;2022-08-19T07:52:22;64.25;;;45.38;;
6939;SDS011;3509;48.510;9.076;2022-08-19T07:54:47;66.18;;;46.78;;
6939;SDS011;3509;48.510;9.076;2022-08-19T07:57:14;45.13;;;33.78;;
6939;SDS011;3509;48.510;9.076;2022-08-19T07:59:41;66.38;;;46.35;;
6939;SDS011;3509;48.510;9.076;2022-08-19T08:02:07;65.00;;;44.05;;
6939;SDS011;3509;48.510;9.076;2022-08-19T08:04:33;68.82;;;46.95;;
6939;SDS011;3509;48.510;9.076;2022-08-19T08:07:18;76.90;;;47.10;;
6939;SDS011;3509;48.510;9.076;2022-08-19T08:10:03;66.93;;;46.10;;
6939;SDS011;3509;48.510;9.076;2022-08-19T08:12:33;65.05;;;46.08;;
6939;SDS011;3509;48.510;9.076;2022-08-19T08:15:05;62.85;;;45.53;;
6939;SDS011;3509;48.510;9.076;2022-08-19T08:17:33;68.65;;;45.38;;
6939;SDS011;3509;48.510;9.076;2022-08-19T08:19:59;75.55;;;48.83;;
6939;SDS011;3509;48.510;9.076;2022-08-19T08:22:25;76.65;;;47.55;;
6939;SDS011;3509;48.510;9.076;2022-08-19T08:25:11;86.00;;;48.28;;
6939;SDS011;3509;48.510;9.076;2022-08-19T08:27:40;78.82;;;51.03;;
6939;SDS011;3509;48.510;9.076;2022-08-19T08:30:08;74.32;;;48.72;;
6939;SDS011;3509;48.510;9.076;2022-08-19T08:32:37;78.72;;;48.90;;
6939;SDS011;3509;48.510;9.076;2022-08-19T08:35:04;75.13;;;47.20;;
6939;SDS011;3509;48.510;9.076;2022-08-19T08:37:31;74.93;;;48.20;;
6939;SDS011;3509;48.510;9.076;2022-08-19T08:39:57;81.85;;;49.80;;
6939;SDS011;3509;48.510;9.076;2022-08-19T08:42:32;78.93;;;49.28;;
6939;SDS011;3509;48.510;9.076;2022-08-19T08:47:40;79.80;;;48.92;;
6939;SDS011;3509;48.510;9.076;2022-08-19T08:50:21;81.18;;;50.78;;
6939;SDS011;3509;48.510;9.076;2022-08-19T08:52:56;86.80;;;51.88;;
6939;SDS011;3509;48.510;9.076;2022-08-19T08:55:24;81.93;;;50.42;;
6939;SDS011;3509;48.510;9.076;2022-08-19T09:00:24;92.50;;;53.30;;
6939;SDS011;3509;48.510;9.076;2022-08-19T09:03:26;93.75;;;51.25;;
6939;SDS011;3509;48.510;9.076;2022-08-19T09:11:03;108.32;;;54.97;;
6939;SDS011;3509;48.510;9.076;2022-08-19T09:18:38;97.88;;;52.88;;
6939;SDS011;3509;48.510;9.076;2022-08-19T09:21:04;92.40;;;52.95;;
6939;SDS011;3509;48.510;9.076;2022-08-19T09:23:29;91.07;;;52.53;;
6939;SDS011;3509;48.510;9.076;2022-08-19T09:25:55;87.30;;;50.70;;
6939;SDS011;3509;48.510;9.076;2022-08-19T09:28:21;97.32;;;52.33;;
6939;SDS011;3509;48.510;9.076;2022-08-19T09:30:46;104.78;;;53.20;;
6939;SDS011;3509;48.510;9.076;2022-08-19T09:33:12;98.45;;;51.95;;
6939;SDS011;3509;48.510;9.076;2022-08-19T09:35:38;105.97;;;51.67;;
6939;SDS011;3509;48.510;9.076;2022-08-19T09:38:04;92.38;;;51.60;;
6939;SDS011;3509;48.510;9.076;2022-08-19T09:40:29;92.57;;;52.20;;
6939;SDS011;3509;48.510;9.076;2022-08-19T09:42:55;92.03;;;51.88;;
6939;SDS011;3509;48.510;9.076;2022-08-19T09:45:22;107.15;;;52.65;;
6939;SDS011;3509;48.510;9.076;2022-08-19T09:47:51;103.03;;;54.47;;
6939;SDS011;3509;48.510;9.076;2022-08-19T09:50:18;85.93;;;50.42;;
6939;SDS011;3509;48.510;9.076;2022-08-19T09:52:43;107.72;;;53.03;;
6939;SDS011;3509;48.510;9.076;2022-08-19T09:55:10;101.22;;;52.67;;
6939;SDS011;3509;48.510;9.076;2022-08-19T09:57:36;103.50;;;53.75;;
6939;SDS011;3509;48.510;9.076;2022-08-19T10:00:06;91.07;;;50.45;;
6939;SDS011;3509;48.510;9.076;2022-08-19T10:02:34;102.90;;;52.67;;
6939;SDS011;3509;48.510;9.076;2022-08-19T10:05:00;85.95;;;51.22;;
6939;SDS011;3509;48.510;9.076;2022-08-19T10:07:44;96.85;;;52.80;;
6939;SDS011;3509;48.510;9.076;2022-08-19T10:10:10;90.28;;;49.88;;
6939;SDS011;3509;48.510;9.076;2022-08-19T10:12:36;82.25;;;50.55;;
6939;SDS011;3509;48.510;9.076;2022-08-19T10:15:02;91.30;;;49.47;;
6939;SDS011;3509;48.510;9.076;2022-08-19T10:17:31;87.55;;;50.30;;
6939;SDS011;3509;48.510;9.076;2022-08-19T10:19:58;74.32;;;46.78;;
6939;SDS011;3509;48.510;9.076;2022-08-19T10:22:24;87.07;;;49.65;;
6939;SDS011;3509;48.510;9.076;2022-08-19T10:24:50;65.50;;;46.50;;
6939;SDS011;3509;48.510;9.076;2022-08-19T10:27:16;70.88;;;47.55;;
6939;SDS011;3509;48.510;9.076;2022-08-19T10:29:42;66.25;;;46.50;;
6939;SDS011;3509;48.510;9.076;2022-08-19T10:32:08;68.45;;;47.03;;
6939;SDS011;3509;48.510;9.076;2022-08-19T10:34:36;68.57;;;46.90;;
6939;SDS011;3509;48.510;9.076;2022-08-19T10:37:03;68.78;;;47.10;;
6939;SDS011;3509;48.510;9.076;2022-08-19T10:39:31;65.05;;;46.20;;
6939;SDS011;3509;48.510;9.076;2022-08-19T10:41:58;68.70;;;46.53;;
6939;SDS011;3509;48.510;9.076;2022-08-19T10:44:29;76.70;;;49.60;;
6939;SDS011;3509;48.510;9.076;2022-08-19T10:46:55;84.55;;;55.47;;
6939;SDS011;3509;48.510;9.076;2022-08-19T10:49:21;81.55;;;52.20;;
6939;SDS011;3509;48.510;9.076;2022-08-19T10:51:47;60.50;;;45.28;;
6939;SDS011;3509;48.510;9.076;2022-08-19T10:54:32;64.72;;;46.15;;
6939;SDS011;3509;48.510;9.076;2022-08-19T10:57:16;56.30;;;44.17;;
6939;SDS011;3509;48.510;9.076;2022-08-19T10:59:42;55.88;;;43.90;;
6939;SDS011;3509;48.510;9.076;2022-08-19T11:02:09;53.05;;;41.08;;
6939;SDS011;3509;48.510;9.076;2022-08-19T11:04:37;60.88;;;44.00;;
6939;SDS011;3509;48.510;9.076;2022-08-19T11:07:03;56.88;;;42.30;;
6939;SDS011;3509;48.510;9.076;2022-08-19T11:09:30;63.83;;;43.80;;
6939;SDS011;3509;48.510;9.076;2022-08-19T11:11:56;54.80;;;43.58;;
6939;SDS011;3509;48.510;9.076;2022-08-19T11:14:22;48.50;;;41.22;;
6939;SDS011;3509;48.510;9.076;2022-08-19T11:16:49;52.53;;;43.20;;
6939;SDS011;3509;48.510;9.076;2022-08-19T11:19:16;54.88;;;44.00;;
6939;SDS011;3509;48.510;9.076;2022-08-19T11:21:45;53.90;;;41.13;;
6939;SDS011;3509;48.510;9.076;2022-08-19T11:24:13;52.05;;;41.10;;
6939;SDS011;3509;48.510;9.076;2022-08-19T11:26:41;53.08;;;41.17;;
6939;SDS011;3509;48.510;9.076;2022-08-19T11:29:09;50.20;;;39.97;;
6939;SDS011;3509;48.510;9.076;2022-08-19T11:31:36;51.55;;;42.58;;
6939;SDS011;3509;48.510;9.076;2022-08-19T11:34:04;56.65;;;43.10;;
6939;SDS011;3509;48.510;9.076;2022-08-19T11:36:32;53.25;;;41.90;;
6939;SDS011;3509;48.510;9.076;2022-08-19T11:38:59;58.22;;;43.90;;
6939;SDS011;3509;48.510;9.076;2022-08-19T11:41:26;54.63;;;44.17;;
6939;SDS011;3509;48.510;9.076;2022-08-19T11:43:52;64.25;;;45.55;;
6939;SDS011;3509;48.510;9.076;2022-08-19T11:46:20;61.65;;;45.92;;
6939;SDS011;3509;48.510;9.076;2022-08-19T11:48:46;66.40;;;47.38;;
6939;SDS011;3509;48.510;9.076;2022-08-19T11:51:15;62.63;;;47.83;;
6939;SDS011;3509;48.510;9.076;2022-08-19T11:53:44;61.40;;;48.20;;
6939;SDS011;3509;48.510;9.076;2022-08-19T11:56:11;69.60;;;48.08;;
6939;SDS011;3509;48.510;9.076;2022-08-19T11:58:37;67.07;;;47.90;;
6939;SDS011;3509;48.510;9.076;2022-08-19T12:01:07;70.93;;;50.50;;
6939;SDS011;3509;48.510;9.076;2022-08-19T12:03:33;67.32;;;50.00;;
6939;SDS011;3509;48.510;9.076;2022-08-19T12:06:04;69.82;;;50.20;;
6939;SDS011;3509;48.510;9.076;2022-08-19T12:08:31;73.90;;;51.30;;
6939;SDS011;3509;48.510;9.076;2022-08-19T12:10:57;72.40;;;50.85;;
6939;SDS011;3509;48.510;9.076;2022-08-19T12:13:22;77.10;;;51.95;;
6939;SDS011;3509;48.510;9.076;2022-08-19T12:15:49;70.28;;;50.03;;
6939;SDS011;3509;48.510;9.076;2022-08-19T12:18:14;72.57;;;50.50;;
6939;SDS011;3509;48.510;9.076;2022-08-19T12:20:41;70.38;;;49.85;;
6939;SDS011;3509;48.510;9.076;2022-08-19T12:23:08;64.80;;;48.70;;
6939;SDS011;3509;48.510;9.076;2022-08-19T12:25:37;66.20;;;47.88;;
6939;SDS011;3509;48.510;9.076;2022-08-19T12:28:13;62.15;;;47.65;;
6939;SDS011;3509;48.510;9.076;2022-08-19T12:30:38;72.82;;;48.95;;
6939;SDS011;3509;48.510;9.076;2022-08-19T12:33:04;63.63;;;48.53;;
6939;SDS011;3509;48.510;9.076;2022-08-19T12:35:30;59.92;;;47.47;;
6939;SDS011;3509;48.510;9.076;2022-08-19T12:37:55;67.35;;;50.05;;
6939;SDS011;3509;48.510;9.076;2022-08-19T12:40:21;66.07;;;50.17;;
6939;SDS011;3509;48.510;9.076;2022-08-19T12:42:47;60.78;;;48.20;;
6939;SDS011;3509;48.510;9.076;2022-08-19T12:45:15;65.20;;;50.70;;
6939;SDS011;3509;48.510;9.076;2022-08-19T12:47:41;64.75;;;49.50;;
6939;SDS011;3509;48.510;9.076;2022-08-19T12:50:07;66.55;;;49.45;;
6939;SDS011;3509;48.510;9.076;2022-08-19T12:52:34;63.72;;;50.40;;
6939;SDS011;3509;48.510;9.076;2022-08-19T12:55:06;63.80;;;48.15;;
6939;SDS011;3509;48.510;9.076;2022-08-19T12:57:32;63.50;;;49.13;;
6939;SDS011;3509;48.510;9.076;2022-08-19T13:00:20;58.35;;;47.03;;
6939;SDS011;3509;48.510;9.076;2022-08-19T13:02:46;55.88;;;45.58;;
6939;SDS011;3509;48.510;9.076;2022-08-19T13:05:25;53.75;;;43.30;;
6939;SDS011;3509;48.510;9.076;2022-08-19T13:07:53;53.95;;;40.15;;
6939;SDS011;3509;48.510;9.076;2022-08-19T13:10:21;48.92;;;41.03;;
6939;SDS011;3509;48.510;9.076;2022-08-19T13:12:49;47.72;;;40.08;;
6939;SDS011;3509;48.510;9.076;2022-08-19T13:15:17;43.55;;;38.75;;
6939;SDS011;3509;48.510;9.076;2022-08-19T13:17:47;42.50;;;37.70;;
6939;SDS011;3509;48.510;9.076;2022-08-19T13:20:14;45.00;;;37.63;;
6939;SDS011;3509;48.510;9.076;2022-08-19T13:22:41;41.65;;;36.65;;
6939;SDS011;3509;48.510;9.076;2022-08-19T13:25:07;42.00;;;37.40;;
6939;SDS011;3509;48.510;9.076;2022-08-19T13:27:34;40.33;;;35.45;;
6939;SDS011;3509;48.510;9.076;2022-08-19T13:30:00;39.85;;;35.00;;
6939;SDS011;3509;48.510;9.076;2022-08-19T13:32:45;40.15;;;35.88;;
6939;SDS011;3509;48.510;9.076;2022-08-19T13:35:29;40.88;;;36.58;;
6939;SDS011;3509;48.510;9.076;2022-08-19T13:37:55;41.15;;;35.05;;
6939;SDS011;3509;48.510;9.076;2022-08-19T13:40:22;39.97;;;35.67;;
6939;SDS011;3509;48.510;9.076;2022-08-19T13:42:51;39.22;;;35.10;;
6939;SDS011;3509;48.510;9.076;2022-08-19T13:45:19;37.88;;;33.75;;
6939;SDS011;3509;48.510;9.076;2022-08-19T13:47:47;36.65;;;32.45;;
6939;SDS011;3509;48.510;9.076;2022-08-19T13:50:15;38.35;;;33.95;;
6939;SDS011;3509;48.510;9.076;2022-08-19T13:52:43;35.65;;;31.92;;
6939;SDS011;3509;48.510;9.076;2022-08-19T13:55:10;36.25;;;32.47;;
6939;SDS011;3509;48.510;9.076;2022-08-19T13:57:37;41.33;;;32.83;;
6939;SDS011;3509;48.510;9.076;2022-08-19T14:00:08;39.58;;;35.10;;
6939;SDS011;3509;48.510;9.076;2022-08-19T14:02:37;40.05;;;35.85;;
6939;SDS011;3509;48.510;9.076;2022-08-19T14:05:08;38.78;;;34.88;;
6939;SDS011;3509;48.510;9.076;2022-08-19T14:07:35;41.40;;;37.08;;
6939;SDS011;3509;48.510;9.076;2022-08-19T14:10:01;42.88;;;38.08;;
6939;SDS011;3509;48.510;9.076;2022-08-19T14:12:28;39.85;;;35.78;;
6939;SDS011;3509;48.510;9.076;2022-08-19T14:14:54;36.72;;;32.97;;
6939;SDS011;3509;48.510;9.076;2022-08-19T14:17:20;32.92;;;29.52;;
6939;SDS011;3509;48.510;9.076;2022-08-19T14:19:46;35.08;;;31.33;;
6939;SDS011;3509;48.510;9.076;2022-08-19T14:22:12;34.75;;;31.42;;
6939;SDS011;3509;48.510;9.076;2022-08-19T14:24:38;37.53;;;33.08;;
6939;SDS011;3509;48.510;9.076;2022-08-19T14:27:06;35.90;;;32.10;;
6939;SDS011;3509;48.510;9.076;2022-08-19T14:29:33;34.83;;;31.17;;
6939;SDS011;3509;48.510;9.076;2022-08-19T14:31:59;36.05;;;31.75;;
6939;SDS011;3509;48.510;9.076;2022-08-19T14:34:25;37.95;;;34.08;;
6939;SDS011;3509;48.510;9.076;2022-08-19T14:36:51;38.95;;;33.17;;
6939;SDS011;3509;48.510;9.076;2022-08-19T14:39:20;36.60;;;32.85;;
6939;SDS011;3509;48.510;9.076;2022-08-19T14:41:46;36.63;;;32.70;;
6939;SDS011;3509;48.510;9.076;2022-08-19T14:44:11;37.53;;;33.63;;
6939;SDS011;3509;48.510;9.076;2022-08-19T14:46:37;39.55;;;35.28;;
6939;SDS011;3509;48.510;9.076;2022-08-19T14:49:04;40.75;;;35.35;;
6939;SDS011;3509;48.510;9.076;2022-08-19T14:51:30;39.28;;;35.25;;
6939;SDS011;3509;48.510;9.076;2022-08-19T14:53:56;38.38;;;34.20;;
6939;SDS011;3509;48.510;9.076;2022-08-19T14:56:23;38.83;;;34.63;;
6939;SDS011;3509;48.510;9.076;2022-08-19T14:58:50;39.35;;;35.25;;
6939;SDS011;3509;48.510;9.076;2022-08-19T15:01:16;39.90;;;35.85;;
6939;SDS011;3509;48.510;9.076;2022-08-19T15:03:45;39.33;;;35.33;;
6939;SDS011;3509;48.510;9.076;2022-08-19T15:06:11;39.10;;;34.78;;
6939;SDS011;3509;48.510;9.076;2022-08-19T15:08:38;37.40;;;33.60;;
6939;SDS011;3509;48.510;9.076;2022-08-19T15:11:09;37.22;;;33.55;;
6939;SDS011;3509;48.510;9.076;2022-08-19T15:13:39;36.50;;;32.78;;
6939;SDS011;3509;48.510;9.076;2022-08-19T15:16:06;34.40;;;30.55;;